Time;durP1;ratioP1;P1;durP2;ratioP2;P2;SDS_P1;SDS_P2;PMS_P1;PMS_P2;Temp;Humidity;BMP_temperature;BMP_pressure;BME280_temperature;BME280_humidity;BME280_pressure;Samples;Min_cycle;Max_cycle;Signal;HPM_P1;HPM_P2
2024/04/08 00:00:43;;;;;;;6.00;5.20;;;19.30;99.90;;;;;;5400366;26;20577;-73
2024/04/08 00:03:12;;;;;;;5.77;4.57;;;19.20;99.90;;;;;;5399948;26;20854;-73
2024/04/08 00:05:41;;;;;;;6.60;5.27;;;19.20;99.90;;;;;;5400261;26;20632;-73
2024/04/08 00:08:10;;;;;;;6.20;5.33;;;19.20;99.90;;;;;;5399870;26;20604;-73
2024/04/08 00:10:36;;;;;;;5.30;4.90;;;19.20;99.90;;;;;;5400383;26;20902;-73
2024/04/08 00:13:05;;;;;;;5.60;5.00;;;19.20;99.90;;;;;;5399814;26;20476;-73
2024/04/08 00:15:31;;;;;;;5.00;4.50;;;19.20;99.90;;;;;;5400307;26;20860;-73
2024/04/08 00:18:00;;;;;;;4.93;4.20;;;19.20;99.90;;;;;;5399554;26;20481;-73
2024/04/08 00:20:25;;;;;;;5.97;5.40;;;19.20;99.90;;;;;;5399952;26;20857;-73
2024/04/08 00:22:57;;;;;;;6.07;4.50;;;19.20;99.90;;;;;;5397325;26;20558;-73
2024/04/08 00:25:23;;;;;;;6.63;4.23;;;19.20;99.90;;;;;;5384601;26;20554;-73
2024/04/08 00:27:51;;;;;;;4.70;3.80;;;19.20;99.90;;;;;;5384860;26;20902;-73
2024/04/08 00:30:17;;;;;;;4.93;4.37;;;19.20;99.90;;;;;;5383861;26;20618;-72
2024/04/08 00:32:46;;;;;;;4.77;4.27;;;19.20;99.90;;;;;;5384835;26;20970;-73
2024/04/08 00:35:15;;;;;;;4.40;4.00;;;19.20;99.90;;;;;;5384228;26;20557;-73
2024/04/08 00:37:47;;;;;;;5.57;4.20;;;19.10;99.90;;;;;;5384616;26;20468;-73
2024/04/08 00:40:15;;;;;;;5.47;4.10;;;19.10;99.90;;;;;;5384577;26;20577;-73
2024/04/08 00:42:45;;;;;;;4.90;4.50;;;19.10;99.90;;;;;;5385108;26;20473;-73
2024/04/08 00:45:11;;;;;;;5.80;4.80;;;19.10;99.90;;;;;;5384054;26;20555;-73
2024/04/08 00:47:39;;;;;;;4.87;4.47;;;19.00;99.90;;;;;;5384818;26;20470;-73
2024/04/08 00:50:06;;;;;;;6.70;4.90;;;19.00;99.90;;;;;;5383899;26;20557;-72
2024/04/08 00:52:35;;;;;;;6.03;4.53;;;19.00;99.90;;;;;;5384456;26;20493;-72
2024/04/08 00:55:01;;;;;;;6.10;4.77;;;19.00;99.90;;;;;;5383985;26;20477;-72
2024/04/08 00:57:33;;;;;;;5.37;4.83;;;18.90;99.90;;;;;;5384373;26;20482;-73
2024/04/08 01:00:02;;;;;;;5.03;4.53;;;19.00;99.90;;;;;;5384205;26;20549;-73
2024/04/08 01:02:31;;;;;;;5.53;4.73;;;19.00;99.90;;;;;;5398800;26;20553;-72
2024/04/08 01:04:57;;;;;;;5.80;5.20;;;18.90;99.90;;;;;;5384501;26;21030;-73
2024/04/08 01:07:26;;;;;;;6.67;5.90;;;19.00;99.90;;;;;;5383666;26;20827;-72
2024/04/08 01:09:52;;;;;;;6.70;4.30;;;19.00;99.90;;;;;;5384216;26;20489;-72
2024/04/08 01:12:21;;;;;;;5.17;4.67;;;19.00;99.90;;;;;;5383602;26;20975;-73
2024/04/08 01:14:49;;;;;;;10.73;4.80;;;19.00;99.90;;;;;;5384100;26;20568;-73
2024/04/08 01:17:21;;;;;;;6.80;4.30;;;19.00;99.90;;;;;;5383575;26;21080;-72
2024/04/08 01:19:48;;;;;;;7.17;4.00;;;19.00;99.90;;;;;;5349295;26;20487;-73
2024/04/08 01:22:17;;;;;;;6.00;4.73;;;19.00;99.90;;;;;;5348800;26;20948;-72
2024/04/08 01:24:45;;;;;;;4.97;4.40;;;19.00;99.90;;;;;;5365214;26;20534;-72
2024/04/08 01:27:14;;;;;;;4.67;4.17;;;19.00;99.90;;;;;;5383479;26;20537;-73
2024/04/08 01:29:40;;;;;;;9.60;4.47;;;19.10;99.90;;;;;;5383979;26;20687;-73
2024/04/08 01:32:09;;;;;;;5.87;4.07;;;19.10;99.90;;;;;;5383969;26;20509;-71
2024/04/08 01:34:35;;;;;;;4.57;3.60;;;19.10;99.90;;;;;;5382926;26;21397;-72
2024/04/08 01:37:05;;;;;;;3.93;3.50;;;19.10;99.90;;;;;;5383163;26;20486;-74
2024/04/08 01:39:30;;;;;;;4.77;3.60;;;19.20;99.90;;;;;;5383419;26;20545;-73
2024/04/08 01:42:02;;;;;;;3.50;3.23;;;19.20;99.90;;;;;;5394583;26;21088;-74
2024/04/08 01:44:28;;;;;;;4.30;3.53;;;19.20;99.90;;;;;;5418889;26;20957;-72
2024/04/08 01:46:58;;;;;;;3.43;3.00;;;19.30;99.90;;;;;;5418362;26;20525;-72
2024/04/08 01:49:26;;;;;;;4.43;4.03;;;19.30;99.90;;;;;;5418258;26;20539;-72
2024/04/08 01:51:56;;;;;;;4.30;3.60;;;19.30;99.90;;;;;;5419155;26;20524;-73
2024/04/08 01:54:22;;;;;;;5.03;3.80;;;19.30;99.90;;;;;;5418816;26;20476;-73
2024/04/08 01:56:50;;;;;;;3.77;3.40;;;19.30;99.90;;;;;;5418983;26;20480;-74
2024/04/08 01:59:19;;;;;;;4.70;3.90;;;19.40;99.90;;;;;;5418420;26;20620;-73
2024/04/08 02:01:48;;;;;;;3.77;3.10;;;19.40;99.90;;;;;;5419390;26;20472;-73
2024/04/08 02:04:14;;;;;;;3.53;3.20;;;19.40;99.90;;;;;;5418810;26;20839;-73
2024/04/08 02:06:42;;;;;;;5.73;3.00;;;19.40;99.90;;;;;;5419077;26;20775;-73
2024/04/08 02:09:08;;;;;;;3.60;3.33;;;19.50;99.90;;;;;;5418957;26;21074;-73
2024/04/08 02:11:37;;;;;;;3.43;3.13;;;19.50;99.90;;;;;;5418447;26;20476;-73
2024/04/08 02:14:03;;;;;;;3.47;2.70;;;19.50;99.90;;;;;;5418722;26;20551;-73
2024/04/08 02:16:34;;;;;;;3.50;3.23;;;19.50;99.90;;;;;;5418708;26;20595;-72
2024/04/08 02:19:00;;;;;;;3.20;2.60;;;19.50;99.90;;;;;;5418976;26;20635;-72
2024/04/08 02:21:29;;;;;;;3.23;3.03;;;19.50;99.90;;;;;;5418269;26;20480;-72
2024/04/08 02:23:54;;;;;;;3.50;3.20;;;19.50;99.90;;;;;;5419111;26;20551;-73
2024/04/08 02:26:24;;;;;;;3.53;3.23;;;19.50;99.90;;;;;;5418425;26;20581;-72
2024/04/08 02:28:50;;;;;;;3.23;3.03;;;19.50;99.90;;;;;;5418548;26;20524;-73
2024/04/08 02:31:18;;;;;;;3.53;3.00;;;19.60;99.90;;;;;;5418327;26;20803;-72
2024/04/08 02:33:51;;;;;;;3.83;3.50;;;19.50;99.90;;;;;;5417925;26;21091;-72
2024/04/08 02:36:20;;;;;;;3.60;3.33;;;19.50;99.90;;;;;;5417784;26;20476;-72
2024/04/08 02:38:46;;;;;;;4.07;3.50;;;19.50;99.90;;;;;;5418880;26;20570;-72
2024/04/08 02:41:15;;;;;;;4.10;3.70;;;19.50;99.90;;;;;;5418016;26;20580;-72
2024/04/08 02:43:41;;;;;;;4.17;3.60;;;19.50;99.90;;;;;;5417982;26;20496;-73
2024/04/08 02:46:09;;;;;;;4.07;3.77;;;19.50;99.90;;;;;;5418061;26;20588;-73
2024/04/08 02:48:38;;;;;;;4.33;3.93;;;19.40;99.90;;;;;;5417866;26;20900;-72
2024/04/08 02:51:09;;;;;;;4.50;3.53;;;19.40;99.90;;;;;;5418481;26;20492;-72
2024/04/08 02:53:36;;;;;;;4.73;4.20;;;19.40;99.90;;;;;;5418143;26;20872;-72
2024/04/08 02:56:07;;;;;;;4.40;4.10;;;19.40;99.90;;;;;;5418222;26;20492;-73
2024/04/08 02:58:33;;;;;;;4.30;3.90;;;19.40;99.90;;;;;;5417876;26;20977;-73
2024/04/08 03:01:05;;;;;;;6.13;4.50;;;19.40;99.90;;;;;;5418468;26;20521;-72
2024/04/08 03:03:31;;;;;;;4.13;3.83;;;19.40;99.90;;;;;;5417680;26;21005;-73
2024/04/08 03:05:59;;;;;;;4.30;3.80;;;19.30;99.90;;;;;;5418241;26;20591;-72
2024/04/08 03:08:28;;;;;;;4.80;4.40;;;19.30;99.90;;;;;;5417763;26;20637;-72
2024/04/08 03:11:00;;;;;;;4.90;4.40;;;19.30;99.90;;;;;;5418225;26;20612;-73
2024/04/08 03:13:26;;;;;;;4.10;3.73;;;19.20;99.90;;;;;;5417389;26;20464;-72
2024/04/08 03:15:56;;;;;;;5.23;4.80;;;19.20;99.90;;;;;;5418107;26;20472;-73
2024/04/08 03:18:22;;;;;;;4.40;3.90;;;19.20;99.90;;;;;;5417461;26;20563;-72
2024/04/08 03:20:57;;;;;;;4.43;4.03;;;19.20;99.90;;;;;;5418072;26;20937;-72
2024/04/08 03:23:23;;;;;;;5.00;4.00;;;19.20;99.90;;;;;;5417143;26;20483;-72
2024/04/08 03:26:01;;;;;;;4.50;3.97;;;19.20;99.90;;;;;;5417808;26;20480;-72
2024/04/08 03:28:28;;;;;;;6.67;3.53;;;19.20;99.90;;;;;;5417167;26;20487;-73
2024/04/08 03:30:57;;;;;;;5.53;4.13;;;19.20;99.90;;;;;;5417863;26;20488;-73
2024/04/08 03:33:25;;;;;;;4.73;3.90;;;19.10;99.90;;;;;;5417247;26;20950;-73
2024/04/08 03:35:54;;;;;;;3.53;3.20;;;19.20;99.90;;;;;;5417559;26;20529;-72
2024/04/08 03:38:23;;;;;;;5.50;4.00;;;19.20;99.90;;;;;;5417166;26;20553;-72
2024/04/08 03:41:03;;;;;;;3.53;3.10;;;19.20;99.90;;;;;;5417610;26;20611;-73
2024/04/08 03:43:32;;;;;;;5.20;3.73;;;19.20;99.90;;;;;;5417013;26;20628;-72
2024/04/08 03:46:01;;;;;;;4.40;3.60;;;19.20;99.90;;;;;;5417487;26;20552;-72
2024/04/08 03:48:30;;;;;;;3.70;3.40;;;19.20;99.90;;;;;;5416814;26;21021;-72
2024/04/08 03:50:56;;;;;;;3.40;3.10;;;19.20;99.90;;;;;;5417568;26;20528;-72
2024/04/08 03:53:25;;;;;;;3.37;2.87;;;19.20;99.90;;;;;;5416796;26;20811;-72
2024/04/08 03:55:51;;;;;;;6.03;3.90;;;19.20;99.90;;;;;;5417182;26;20911;-72
2024/04/08 03:58:22;;;;;;;4.57;3.90;;;19.20;99.90;;;;;;5417695;26;20468;-72
2024/04/08 04:00:48;;;;;;;4.07;3.57;;;19.20;99.90;;;;;;5385054;26;20469;-72
2024/04/08 04:03:17;;;;;;;7.73;4.10;;;19.10;99.90;;;;;;5385312;26;20517;-72
2024/04/08 04:05:43;;;;;;;6.10;4.10;;;19.20;99.90;;;;;;5384978;26;20524;-73
2024/04/08 04:08:11;;;;;;;4.73;3.83;;;19.20;99.90;;;;;;5385027;26;20474;-73
2024/04/08 04:10:37;;;;;;;4.20;3.80;;;19.20;99.90;;;;;;5384861;26;20561;-73
2024/04/08 04:13:06;;;;;;;4.03;3.63;;;19.20;99.90;;;;;;5385108;26;20462;-73
2024/04/08 04:15:35;;;;;;;4.13;3.73;;;19.20;99.90;;;;;;5384520;26;20553;-73
2024/04/08 04:18:03;;;;;;;4.10;3.57;;;19.10;99.90;;;;;;5385172;26;20481;-73
2024/04/08 04:20:39;;;;;;;4.30;3.90;;;19.20;99.90;;;;;;5384605;26;20626;-73
2024/04/08 04:23:09;;;;;;;5.97;5.20;;;19.10;99.90;;;;;;5383856;26;20609;-73
2024/04/08 04:25:39;;;;;;;5.70;5.20;;;19.10;99.90;;;;;;5384524;26;20772;-74
2024/04/08 04:28:10;;;;;;;5.37;4.97;;;19.10;99.90;;;;;;5384915;26;20567;-74
2024/04/08 04:30:38;;;;;;;5.03;4.63;;;19.10;99.90;;;;;;5384413;26;20549;-73
2024/04/08 04:33:07;;;;;;;5.63;5.10;;;19.10;99.90;;;;;;5384542;26;20571;-73
2024/04/08 04:35:33;;;;;;;4.20;3.80;;;19.10;99.90;;;;;;5384645;26;20631;-73
2024/04/08 04:38:04;;;;;;;4.00;3.70;;;19.10;99.90;;;;;;5384228;26;20493;-73
2024/04/08 04:40:30;;;;;;;5.87;4.60;;;19.10;99.90;;;;;;5384238;26;20879;-73
2024/04/08 04:43:00;;;;;;;4.60;4.23;;;19.10;99.90;;;;;;5384612;26;20486;-74
2024/04/08 04:45:26;;;;;;;5.80;3.87;;;19.10;99.90;;;;;;5382861;26;20478;-73
2024/04/08 04:47:57;;;;;;;5.00;4.33;;;19.10;99.90;;;;;;5383900;26;20846;-73
2024/04/08 04:50:23;;;;;;;7.17;5.20;;;19.00;99.90;;;;;;5384481;26;20638;-72
2024/04/08 04:52:52;;;;;;;8.27;4.60;;;19.00;99.90;;;;;;5383983;26;20490;-74
2024/04/08 04:55:17;;;;;;;5.27;4.60;;;19.00;99.90;;;;;;5384200;26;20553;-74
2024/04/08 04:57:46;;;;;;;5.27;4.67;;;19.00;99.90;;;;;;5384299;26;20585;-72
2024/04/08 05:00:13;;;;;;;5.90;5.30;;;19.00;99.90;;;;;;5384141;26;20864;-73
2024/04/08 05:02:43;;;;;;;5.97;4.63;;;19.00;99.90;;;;;;5383516;26;20470;-72
2024/04/08 05:05:13;;;;;;;5.50;5.00;;;19.00;99.90;;;;;;5384230;26;20474;-73
2024/04/08 05:07:42;;;;;;;5.33;4.10;;;19.00;99.90;;;;;;5382511;26;20530;-73
2024/04/08 05:10:08;;;;;;;6.73;5.83;;;19.00;99.90;;;;;;5384280;26;20470;-72
2024/04/08 05:12:37;;;;;;;6.60;5.67;;;19.00;99.90;;;;;;5383007;26;21018;-73
2024/04/08 05:15:04;;;;;;;7.40;4.97;;;18.90;99.90;;;;;;5384095;26;20554;-74
2024/04/08 05:17:32;;;;;;;6.30;5.80;;;18.90;99.90;;;;;;5384040;26;20550;-74
2024/04/08 05:20:03;;;;;;;6.93;6.27;;;18.90;99.90;;;;;;5383723;26;20593;-73
2024/04/08 05:22:34;;;;;;;6.17;5.67;;;18.90;99.90;;;;;;5383092;26;20525;-72
2024/04/08 05:25:00;;;;;;;7.10;6.40;;;18.90;99.90;;;;;;5383523;26;20899;-73
2024/04/08 05:27:29;;;;;;;7.07;6.37;;;18.90;99.90;;;;;;5384069;26;20533;-73
2024/04/08 05:29:55;;;;;;;6.83;6.00;;;18.90;99.90;;;;;;5383384;26;20545;-74
2024/04/08 05:32:24;;;;;;;5.70;5.20;;;18.90;99.90;;;;;;5383739;26;20520;-74
2024/04/08 05:34:50;;;;;;;5.67;5.27;;;18.90;99.90;;;;;;5383530;26;20490;-72
2024/04/08 05:37:19;;;;;;;5.03;4.50;;;18.90;99.90;;;;;;5384058;26;20529;-74
2024/04/08 05:39:50;;;;;;;5.10;4.60;;;18.90;99.90;;;;;;5382205;26;20855;-72
2024/04/08 05:42:19;;;;;;;4.83;4.53;;;19.00;99.90;;;;;;5383482;26;21011;-74
2024/04/08 05:44:45;;;;;;;4.97;4.50;;;19.00;99.90;;;;;;5383465;26;20553;-73
2024/04/08 05:47:13;;;;;;;4.97;4.57;;;19.00;99.90;;;;;;5383929;26;20737;-73
2024/04/08 05:49:39;;;;;;;5.53;4.87;;;19.00;99.90;;;;;;5383553;26;20614;-73
2024/04/08 05:52:09;;;;;;;4.80;4.40;;;19.00;99.90;;;;;;5383932;26;20482;-71
2024/04/08 05:54:35;;;;;;;4.70;4.27;;;19.00;99.90;;;;;;5383448;26;20832;-72
2024/04/08 05:57:07;;;;;;;4.77;4.30;;;19.00;99.90;;;;;;5383469;26;20470;-73
2024/04/08 05:59:33;;;;;;;4.87;3.97;;;19.10;99.90;;;;;;5383672;26;20473;-73
2024/04/08 06:02:02;;;;;;;7.23;4.33;;;19.00;99.90;;;;;;5383174;26;21067;-73
2024/04/08 06:04:27;;;;;;;5.00;4.37;;;19.10;99.90;;;;;;5383743;26;20478;-74
2024/04/08 06:06:56;;;;;;;5.70;4.97;;;19.10;99.90;;;;;;5383176;26;20493;-73
2024/04/08 06:09:22;;;;;;;6.80;5.77;;;19.10;99.90;;;;;;5383422;26;20490;-74
2024/04/08 06:11:51;;;;;;;6.33;5.60;;;19.10;99.90;;;;;;5383059;26;20605;-73
2024/04/08 06:14:19;;;;;;;6.50;5.30;;;19.20;99.90;;;;;;5383264;26;20545;-73
2024/04/08 06:16:48;;;;;;;7.47;6.80;;;19.20;99.90;;;;;;5383036;26;20513;-73
2024/04/08 06:19:13;;;;;;;9.20;6.60;;;19.20;99.90;;;;;;5383521;26;20832;-73
2024/04/08 06:21:42;;;;;;;8.37;7.47;;;19.20;99.90;;;;;;5382469;26;20566;-72
2024/04/08 06:24:08;;;;;;;8.00;7.30;;;19.20;99.90;;;;;;5382796;26;20557;-73
2024/04/08 06:26:37;;;;;;;6.93;6.33;;;19.20;99.90;;;;;;5383319;26;20565;-72
2024/04/08 06:29:04;;;;;;;6.60;6.00;;;19.20;99.90;;;;;;5382737;26;20615;-72
2024/04/08 06:31:35;;;;;;;5.97;5.57;;;19.30;99.90;;;;;;5383295;26;20538;-72
2024/04/08 06:34:01;;;;;;;7.77;5.07;;;19.30;99.90;;;;;;5382744;26;20580;-72
2024/04/08 06:36:30;;;;;;;7.13;6.40;;;19.40;99.90;;;;;;5383124;26;20486;-72
2024/04/08 06:38:56;;;;;;;6.67;5.23;;;19.40;99.90;;;;;;5382655;26;20474;-72
2024/04/08 06:41:28;;;;;;;5.87;5.27;;;19.30;99.90;;;;;;5383092;26;20478;-72
2024/04/08 06:43:54;;;;;;;7.57;4.20;;;19.30;99.90;;;;;;5382543;26;20534;-74
2024/04/08 06:46:23;;;;;;;5.57;4.23;;;19.40;99.90;;;;;;5382869;26;20847;-72
2024/04/08 06:48:51;;;;;;;6.60;4.77;;;19.40;99.90;;;;;;5382652;26;20558;-72
2024/04/08 06:51:20;;;;;;;6.00;4.90;;;19.40;99.90;;;;;;5382858;26;20517;-72
2024/04/08 06:53:46;;;;;;;6.80;4.67;;;19.40;99.90;;;;;;5382337;26;20615;-72
2024/04/08 06:56:15;;;;;;;5.27;4.63;;;19.40;99.90;;;;;;5383106;26;20489;-72
2024/04/08 06:58:41;;;;;;;5.63;5.07;;;19.40;99.90;;;;;;5382596;26;20474;-72
2024/04/08 07:01:10;;;;;;;5.30;4.80;;;19.40;99.90;;;;;;5382217;26;20477;-73
2024/04/08 07:03:35;;;;;;;4.60;4.20;;;19.50;99.90;;;;;;5382682;26;20534;-72
2024/04/08 07:06:10;;;;;;;5.17;4.70;;;19.50;99.90;;;;;;5382486;26;20477;-72
2024/04/08 07:08:36;;;;;;;8.10;5.17;;;19.50;99.90;;;;;;5382832;26;20545;-72
2024/04/08 07:11:04;;;;;;;8.27;5.17;;;19.50;99.90;;;;;;5382233;26;20855;-73
2024/04/08 07:13:31;;;;;;;7.57;6.60;;;19.50;99.90;;;;;;5382507;26;20921;-73
2024/04/08 07:16:00;;;;;;;5.83;5.33;;;19.60;99.90;;;;;;5382031;26;20482;-73
2024/04/08 07:18:26;;;;;;;4.37;3.90;;;19.60;99.90;;;;;;5382436;26;20485;-74
2024/04/08 07:20:55;;;;;;;5.43;4.50;;;19.60;99.90;;;;;;5380935;26;20478;-74
2024/04/08 07:23:27;;;;;;;5.87;4.60;;;19.60;99.90;;;;;;5381691;26;20520;-73
2024/04/08 07:25:56;;;;;;;4.10;3.80;;;19.60;99.90;;;;;;5382105;26;20544;-72
2024/04/08 07:28:22;;;;;;;5.10;4.30;;;19.70;99.90;;;;;;5382263;26;20568;-72
2024/04/08 07:30:50;;;;;;;6.73;4.47;;;19.70;99.90;;;;;;5382309;26;20776;-73
2024/04/08 07:33:16;;;;;;;5.43;4.50;;;19.70;99.90;;;;;;5383679;26;20553;-73
2024/04/08 07:35:45;;;;;;;6.53;4.10;;;19.70;99.90;;;;;;5385642;26;20939;-73
2024/04/08 07:38:11;;;;;;;5.80;4.10;;;19.80;99.90;;;;;;5385149;26;20614;-74
2024/04/08 07:40:42;;;;;;;4.27;3.87;;;19.80;99.90;;;;;;5385635;26;20486;-73
2024/04/08 07:43:08;;;;;;;3.57;3.27;;;19.90;99.90;;;;;;5385200;26;20615;-73
2024/04/08 07:45:40;;;;;;;5.53;4.73;;;20.00;99.90;;;;;;5385386;26;20857;-73
2024/04/08 07:48:06;;;;;;;12.87;4.53;;;20.10;99.90;;;;;;5385219;26;20833;-73
2024/04/08 07:50:36;;;;;;;8.63;4.30;;;20.10;99.90;;;;;;5385686;26;20773;-73
2024/04/08 07:53:02;;;;;;;8.80;5.03;;;20.10;99.90;;;;;;5384944;26;20474;-73
2024/04/08 07:55:31;;;;;;;7.20;5.17;;;20.10;99.90;;;;;;5385568;26;20485;-73
2024/04/08 07:57:59;;;;;;;7.23;4.63;;;20.00;99.90;;;;;;5382338;26;20553;-73
2024/04/08 08:00:28;;;;;;;6.03;5.03;;;19.90;99.90;;;;;;5361581;26;20553;-73
2024/04/08 08:02:54;;;;;;;9.70;5.30;;;19.90;99.90;;;;;;5413823;26;20835;-76
2024/04/08 08:05:22;;;;;;;5.40;4.90;;;19.90;99.90;;;;;;5420667;26;20583;-73
2024/04/08 08:07:48;;;;;;;9.40;4.23;;;19.80;99.90;;;;;;5419450;26;20556;-72
2024/04/08 08:10:19;;;;;;;4.17;3.77;;;19.70;99.90;;;;;;5419699;26;20482;-73
2024/04/08 08:12:47;;;;;;;6.07;5.50;;;19.80;99.90;;;;;;5419718;26;20605;-74
2024/04/08 08:15:19;;;;;;;5.30;4.77;;;19.80;99.90;;;;;;5416169;26;21050;-72
2024/04/08 08:17:49;;;;;;;7.40;4.83;;;19.80;99.90;;;;;;5419052;26;20472;-72
2024/04/08 08:20:18;;;;;;;6.03;5.00;;;19.80;99.90;;;;;;5416911;26;20596;-72
2024/04/08 08:22:47;;;;;;;7.00;4.50;;;19.80;99.90;;;;;;5432551;26;20946;-72
2024/04/08 08:25:15;;;;;;;5.50;5.00;;;19.80;99.90;;;;;;5403456;26;20614;-73
2024/04/08 08:27:44;;;;;;;9.10;4.90;;;19.80;99.90;;;;;;5410074;26;20474;-72
2024/04/08 08:30:10;;;;;;;7.20;5.00;;;19.90;99.90;;;;;;5404728;26;20556;-73
2024/04/08 08:32:43;;;;;;;4.40;3.97;;;19.90;99.90;;;;;;5404913;26;20477;-73
2024/04/08 08:35:11;;;;;;;4.83;4.33;;;19.90;99.90;;;;;;5362473;26;20479;-72
2024/04/08 08:37:38;;;;;;;10.70;4.83;;;19.90;99.90;;;;;;5358608;26;20524;-72
2024/04/08 08:40:08;;;;;;;7.07;4.80;;;19.90;99.90;;;;;;5380315;26;21046;-72
2024/04/08 08:42:34;;;;;;;6.53;4.97;;;20.00;99.90;;;;;;5383877;26;20549;-73
2024/04/08 08:45:08;;;;;;;7.93;4.73;;;20.00;99.90;;;;;;5402348;26;20480;-72
2024/04/08 08:47:34;;;;;;;6.50;4.63;;;20.00;99.90;;;;;;5388417;26;20958;-72
2024/04/08 08:50:07;;;;;;;7.80;4.43;;;20.10;99.90;;;;;;5361997;26;20595;-73
2024/04/08 08:52:33;;;;;;;9.33;5.20;;;20.20;99.90;;;;;;5384548;26;20485;-73
2024/04/08 08:55:02;;;;;;;9.83;5.20;;;20.20;99.90;;;;;;5369397;26;20551;-73
2024/04/08 08:57:30;;;;;;;5.57;4.73;;;20.30;99.90;;;;;;5349912;26;20499;-73
2024/04/08 09:00:01;;;;;;;9.97;5.00;;;20.40;99.90;;;;;;5380546;26;20494;-73
2024/04/08 09:02:27;;;;;;;6.80;4.70;;;20.50;99.90;;;;;;5374017;26;20577;-73
2024/04/08 09:04:55;;;;;;;5.93;5.43;;;20.60;99.90;;;;;;5408799;26;20488;-73
2024/04/08 09:07:24;;;;;;;7.17;4.30;;;20.70;99.90;;;;;;5407470;26;20636;-74
2024/04/08 09:09:56;;;;;;;8.63;5.30;;;20.80;99.90;;;;;;5383443;26;20951;-73
2024/04/08 09:12:22;;;;;;;5.57;5.07;;;20.80;99.90;;;;;;5383017;26;20501;-74
2024/04/08 09:14:52;;;;;;;6.83;5.27;;;20.90;99.90;;;;;;5381199;26;20474;-74
2024/04/08 09:17:18;;;;;;;5.47;4.17;;;21.00;99.90;;;;;;5381490;26;20474;-73
2024/04/08 09:19:47;;;;;;;7.90;5.10;;;21.10;99.90;;;;;;5382974;26;20475;-73
2024/04/08 09:22:14;;;;;;;8.13;5.00;;;21.20;99.90;;;;;;5366124;26;20551;-73
2024/04/08 09:24:45;;;;;;;6.50;4.60;;;21.20;99.90;;;;;;5374776;26;21002;-72
2024/04/08 09:27:11;;;;;;;7.67;6.00;;;21.30;99.90;;;;;;5380054;26;20631;-72
2024/04/08 09:29:40;;;;;;;6.17;5.40;;;21.30;99.90;;;;;;5442254;26;20486;-74
2024/04/08 09:32:08;;;;;;;6.67;5.70;;;21.40;99.90;;;;;;5428109;26;20473;-74
2024/04/08 09:34:37;;;;;;;6.50;4.60;;;21.50;99.90;;;;;;5413357;26;20478;-73
2024/04/08 09:37:03;;;;;;;5.33;4.87;;;21.50;99.90;;;;;;5431238;26;20946;-73
2024/04/08 09:39:33;;;;;;;5.73;5.13;;;21.60;99.90;;;;;;5418946;26;20464;-73
2024/04/08 09:42:04;;;;;;;9.00;5.10;;;21.60;99.90;;;;;;5418710;26;21053;-73
2024/04/08 09:44:34;;;;;;;5.60;4.50;;;21.70;99.90;;;;;;5418605;26;20468;-73
2024/04/08 09:47:01;;;;;;;10.70;5.13;;;21.70;99.90;;;;;;5421943;26;20558;-73
2024/04/08 09:49:30;;;;;;;5.93;3.87;;;21.70;99.90;;;;;;5428041;26;20477;-73
2024/04/08 09:51:56;;;;;;;5.93;4.60;;;21.80;99.90;;;;;;5419055;26;20552;-73
2024/04/08 09:54:25;;;;;;;6.00;5.13;;;21.90;99.90;;;;;;5399560;26;20554;-74
2024/04/08 09:57:02;;;;;;;7.40;4.60;;;21.90;99.90;;;;;;5418266;26;21022;-73
2024/04/08 09:59:38;;;;;;;5.67;4.60;;;22.00;99.90;;;;;;5418439;26;20464;-73
2024/04/08 10:02:13;;;;;;;9.00;5.53;;;22.00;99.90;;;;;;5419446;26;20574;-73
2024/04/08 10:04:45;;;;;;;6.87;4.77;;;22.00;99.90;;;;;;5397639;26;20540;-73
2024/04/08 10:07:11;;;;;;;9.30;7.77;;;22.10;99.90;;;;;;5382975;26;20493;-74
2024/04/08 10:09:40;;;;;;;5.93;5.43;;;22.10;99.90;;;;;;5383254;26;20482;-73
2024/04/08 10:12:08;;;;;;;7.17;4.27;;;22.20;99.90;;;;;;5381331;26;20487;-73
2024/04/08 10:14:39;;;;;;;6.77;4.87;;;22.20;99.90;;;;;;5382280;26;20517;-73
2024/04/08 10:17:05;;;;;;;7.77;6.80;;;22.40;99.90;;;;;;5396762;26;20623;-72
2024/04/08 10:19:34;;;;;;;6.53;5.93;;;22.40;99.90;;;;;;5379099;26;20489;-74
2024/04/08 10:22:00;;;;;;;9.37;4.40;;;22.50;99.90;;;;;;5423341;26;20488;-74
2024/04/08 10:24:33;;;;;;;5.60;4.30;;;22.50;99.90;;;;;;5417629;26;20472;-74
2024/04/08 10:27:02;;;;;;;5.60;4.40;;;22.50;99.90;;;;;;5417558;26;20598;-73
2024/04/08 10:29:31;;;;;;;5.03;4.57;;;22.60;99.90;;;;;;5359908;26;20476;-73
2024/04/08 10:31:59;;;;;;;10.47;6.67;;;22.70;99.90;;;;;;5417050;26;20592;-73
2024/04/08 10:34:29;;;;;;;5.70;5.10;;;22.80;99.90;;;;;;5402924;26;20479;-72
2024/04/08 10:36:54;;;;;;;6.97;4.27;;;22.80;99.90;;;;;;5390417;26;20559;-73
2024/04/08 10:39:26;;;;;;;6.90;4.50;;;22.90;99.90;;;;;;5384663;26;20904;-73
2024/04/08 10:41:52;;;;;;;4.80;4.23;;;22.90;99.90;;;;;;5382610;26;20473;-73
2024/04/08 10:44:21;;;;;;;8.10;7.33;;;23.00;99.90;;;;;;5379196;26;20477;-73
2024/04/08 10:46:48;;;;;;;8.10;6.37;;;23.10;99.90;;;;;;5418726;26;20480;-73
2024/04/08 10:49:19;;;;;;;7.53;6.20;;;23.10;99.90;;;;;;5415318;26;20478;-73
2024/04/08 10:51:48;;;;;;;14.00;12.60;;;23.20;99.90;;;;;;5413260;26;20897;-73
2024/04/08 10:54:17;;;;;;;9.60;8.50;;;23.20;99.90;;;;;;5418185;26;20477;-73
2024/04/08 10:56:43;;;;;;;10.47;6.93;;;23.20;99.90;;;;;;5417862;26;20475;-73
2024/04/08 10:59:11;;;;;;;6.03;5.10;;;23.30;99.90;;;;;;5417724;26;20521;-73
2024/04/08 11:01:38;;;;;;;5.00;4.57;;;23.40;99.90;;;;;;5418072;26;20552;-73
2024/04/08 11:04:07;;;;;;;6.37;5.77;;;23.40;99.90;;;;;;5418209;26;20953;-73
2024/04/08 11:06:36;;;;;;;7.60;6.90;;;23.50;99.90;;;;;;5411370;26;20782;-72
2024/04/08 11:09:06;;;;;;;9.10;4.97;;;23.50;99.90;;;;;;5417283;26;20815;-72
2024/04/08 11:11:33;;;;;;;5.73;4.63;;;23.50;99.90;;;;;;5417757;26;20496;-73
2024/04/08 11:14:01;;;;;;;10.63;6.30;;;23.60;99.90;;;;;;5414855;26;20890;-74
2024/04/08 11:16:28;;;;;;;5.53;4.03;;;23.60;99.90;;;;;;5417496;26;20541;-73
2024/04/08 11:18:58;;;;;;;4.63;3.87;;;23.60;99.90;;;;;;5417101;26;20540;-73
2024/04/08 11:21:26;;;;;;;6.77;3.80;;;23.60;99.90;;;;;;5417206;26;20607;-73
2024/04/08 11:23:57;;;;;;;7.13;6.43;;;23.70;99.90;;;;;;5417769;26;20521;-73
2024/04/08 11:26:23;;;;;;;4.80;4.40;;;23.70;99.90;;;;;;5417372;26;20552;-72
2024/04/08 11:28:52;;;;;;;5.63;3.90;;;23.80;99.90;;;;;;5417702;26;20476;-72
2024/04/08 11:31:18;;;;;;;11.33;4.10;;;23.80;99.90;;;;;;5417694;26;20531;-72
2024/04/08 11:33:46;;;;;;;6.47;3.90;;;23.90;99.90;;;;;;5415870;26;20495;-72
2024/04/08 11:36:12;;;;;;;9.23;4.40;;;24.00;99.90;;;;;;5417493;26;20563;-72
2024/04/08 11:38:44;;;;;;;6.30;3.50;;;24.10;99.90;;;;;;5417231;26;20468;-72
2024/04/08 11:41:13;;;;;;;5.50;3.83;;;24.10;99.90;;;;;;5417644;26;20477;-72
2024/04/08 11:43:41;;;;;;;6.90;4.70;;;24.20;99.90;;;;;;5416814;26;20533;-73
2024/04/08 11:46:07;;;;;;;5.50;4.20;;;24.30;99.90;;;;;;5417473;26;20496;-73
2024/04/08 11:48:37;;;;;;;8.60;3.57;;;24.30;99.90;;;;;;5415447;26;20524;-73
2024/04/08 11:51:04;;;;;;;7.50;4.60;;;24.30;99.90;;;;;;5415283;26;20527;-74
2024/04/08 11:53:40;;;;;;;10.50;7.97;;;24.30;99.90;;;;;;5416876;26;20591;-73
2024/04/08 11:56:08;;;;;;;7.87;6.07;;;24.30;99.90;;;;;;5417354;26;20479;-73
2024/04/08 11:58:39;;;;;;;7.23;3.90;;;24.30;99.90;;;;;;5416518;26;20476;-73
2024/04/08 12:01:05;;;;;;;6.63;4.10;;;24.40;99.90;;;;;;5414856;26;20563;-73
2024/04/08 12:03:34;;;;;;;7.20;5.40;;;24.40;99.90;;;;;;5416591;26;21089;-73
2024/04/08 12:06:01;;;;;;;6.37;4.97;;;24.40;99.90;;;;;;5417241;26;20468;-73
2024/04/08 12:08:30;;;;;;;10.90;7.50;;;24.50;99.90;;;;;;5416377;26;20484;-73
2024/04/08 12:10:57;;;;;;;8.70;6.00;;;24.50;99.90;;;;;;5417273;26;20575;-73
2024/04/08 12:13:26;;;;;;;8.27;4.80;;;24.60;99.90;;;;;;5416513;26;20480;-73
2024/04/08 12:15:55;;;;;;;13.30;4.83;;;24.60;99.90;;;;;;5415941;26;20831;-73
2024/04/08 12:18:25;;;;;;;10.57;5.17;;;24.60;99.90;;;;;;5415654;26;20480;-73
2024/04/08 12:20:51;;;;;;;7.80;5.83;;;24.60;99.90;;;;;;5414364;26;20472;-73
2024/04/08 12:23:19;;;;;;;6.93;5.30;;;24.60;99.90;;;;;;5434523;26;20593;-73
2024/04/08 12:25:45;;;;;;;4.83;4.30;;;24.70;99.70;;;;;;5456045;26;20606;-73
2024/04/08 12:28:14;;;;;;;4.90;4.40;;;24.70;99.40;;;;;;5419444;26;20481;-73
2024/04/08 12:30:41;;;;;;;9.47;4.90;;;24.80;99.30;;;;;;5453792;26;20543;-73
2024/04/08 12:33:13;;;;;;;6.30;4.20;;;24.80;99.40;;;;;;5446717;26;20467;-73
2024/04/08 12:35:38;;;;;;;5.00;4.50;;;24.90;99.30;;;;;;5428007;26;20559;-73
2024/04/08 12:38:08;;;;;;;6.40;4.80;;;24.90;99.60;;;;;;5446634;26;20594;-73
2024/04/08 12:40:35;;;;;;;9.40;5.50;;;24.90;99.50;;;;;;5452843;26;20483;-73
2024/04/08 12:43:03;;;;;;;12.07;7.47;;;24.90;99.60;;;;;;5453202;26;20819;-73
2024/04/08 12:45:29;;;;;;;8.97;6.93;;;24.90;99.60;;;;;;5436604;26;20843;-73
2024/04/08 12:47:58;;;;;;;9.40;6.47;;;24.90;99.70;;;;;;5451457;26;20521;-73
2024/04/08 12:50:26;;;;;;;9.90;6.60;;;25.00;99.70;;;;;;5455769;26;21024;-73